Sept-Iles, Canada
Current Conditions -  °F | °C
As of 2:00 PM on Friday 31 Oct 2014 (Local Time) from CYZV Reporting Station
Broken Clouds Broken Clouds  
Wind Chill: 33°   Ceiling: 12000
Heat Index: 39°   Visibility: 30mi
Dew Point: 23°   Wind: 9mph
Humidity: 52%   Direction: 220°SW
Pressure: 30.03"   Gusts: NA
Location:  50.21°N, 66.39°W
Report Text: CYZV 311800Z 22008KT 30SM FEW040 BKN120 04/M05 A3003 RMK CU1AC7 CU TR SLP171
Loading
Personal Weather Stations






























Interactive Weather Map
Tropical Storm Tracking
New forecast layout! Learn more

10-Day Weather Forecast

Advertisements
Track Severe Weather on mobile